Time;durP1;ratioP1;P1;durP2;ratioP2;P2;SDS_P1;SDS_P2;PMS_P1;PMS_P2;Temp;Humidity;BMP_temperature;BMP_pressure;BME280_temperature;BME280_humidity;BME280_pressure;Samples;Min_cycle;Max_cycle;Signal;HPM_P1;HPM_P2
2022/06/30 00:02:26;;;;;;;15.10;11.80;;;21.50;99.90;;;;;;5032946;28;20649;-70
2022/06/30 00:04:53;;;;;;;14.40;11.77;;;21.50;99.90;;;;;;5015472;28;20214;-71
2022/06/30 00:07:20;;;;;;;14.50;11.37;;;21.50;99.90;;;;;;5015455;28;20291;-76
2022/06/30 00:09:47;;;;;;;15.90;12.17;;;21.40;99.90;;;;;;5033289;28;20203;-70
2022/06/30 00:12:14;;;;;;;16.60;11.07;;;21.40;99.90;;;;;;5015182;28;20249;-70
2022/06/30 00:14:41;;;;;;;15.60;12.33;;;21.40;99.90;;;;;;5015205;28;20294;-70
2022/06/30 00:17:08;;;;;;;15.40;12.20;;;21.40;99.90;;;;;;5015455;28;20195;-71
2022/06/30 00:19:35;;;;;;;18.70;12.40;;;21.40;99.90;;;;;;5032861;28;20215;-69
2022/06/30 00:22:05;;;;;;;16.37;12.23;;;21.30;99.90;;;;;;5032775;28;20291;-70
2022/06/30 00:24:32;;;;;;;17.63;12.13;;;21.30;99.90;;;;;;5015447;28;20318;-69
2022/06/30 00:26:59;;;;;;;17.77;11.87;;;21.30;99.90;;;;;;5015029;28;20206;-71
2022/06/30 00:29:26;;;;;;;16.30;12.23;;;21.30;99.90;;;;;;5033136;28;20195;-70
2022/06/30 00:31:53;;;;;;;21.00;12.60;;;21.30;99.90;;;;;;5014824;28;20242;-70
2022/06/30 00:34:20;;;;;;;16.67;11.63;;;21.30;99.90;;;;;;5033072;28;20188;-71
2022/06/30 00:36:47;;;;;;;18.23;11.83;;;21.30;99.90;;;;;;5015006;28;20604;-74
2022/06/30 00:39:14;;;;;;;16.40;13.10;;;21.30;99.90;;;;;;5015302;28;20248;-75
2022/06/30 00:41:42;;;;;;;18.47;12.87;;;21.30;99.90;;;;;;5017101;28;20278;-74
2022/06/30 00:44:15;;;;;;;19.27;12.07;;;21.30;99.90;;;;;;5018564;28;20599;-74
2022/06/30 00:46:43;;;;;;;17.37;12.10;;;21.20;99.90;;;;;;5019292;28;20199;-75
2022/06/30 00:49:10;;;;;;;17.07;12.80;;;21.20;99.90;;;;;;5019150;28;20188;-69
2022/06/30 00:51:37;;;;;;;21.90;13.50;;;21.20;99.90;;;;;;5018903;28;20207;-70
2022/06/30 00:54:05;;;;;;;18.40;13.53;;;21.20;99.90;;;;;;5019012;28;20200;-70
2022/06/30 00:56:34;;;;;;;18.40;13.43;;;21.20;99.90;;;;;;5036454;28;20194;-73
2022/06/30 00:59:04;;;;;;;19.13;12.83;;;21.20;99.90;;;;;;5018448;28;20223;-71
2022/06/30 01:01:32;;;;;;;15.57;13.07;;;21.20;99.90;;;;;;5018576;28;20195;-73
2022/06/30 01:04:00;;;;;;;19.93;13.37;;;21.20;99.90;;;;;;5018362;28;20716;-69
2022/06/30 01:06:28;;;;;;;17.83;13.20;;;21.20;99.90;;;;;;5018354;28;20649;-75
2022/06/30 01:08:57;;;;;;;20.10;13.67;;;21.20;99.90;;;;;;5018541;28;20649;-76
2022/06/30 01:14:09;;;;;;;15.73;12.90;;;21.10;99.90;;;;;;5018350;28;20205;-76
2022/06/30 01:16:42;;;;;;;18.07;13.80;;;21.10;99.90;;;;;;5018404;28;20290;-76
2022/06/30 01:19:09;;;;;;;20.30;13.57;;;21.00;99.90;;;;;;5018702;28;20235;-74
2022/06/30 01:21:36;;;;;;;20.37;13.87;;;21.00;99.90;;;;;;5018644;28;20594;-70
2022/06/30 01:24:03;;;;;;;16.67;13.03;;;21.00;99.90;;;;;;5018572;28;20571;-70
2022/06/30 01:26:31;;;;;;;18.53;13.80;;;21.00;99.90;;;;;;5018173;28;20295;-69
2022/06/30 01:28:58;;;;;;;16.30;13.50;;;21.00;99.90;;;;;;5018289;28;20199;-69
2022/06/30 01:31:25;;;;;;;17.00;13.63;;;21.00;99.90;;;;;;5017925;28;20671;-69
2022/06/30 01:33:52;;;;;;;18.67;13.40;;;21.00;99.90;;;;;;5017784;28;20223;-69
2022/06/30 01:36:18;;;;;;;17.63;13.03;;;21.00;99.90;;;;;;5018150;28;20661;-70
2022/06/30 01:38:45;;;;;;;17.37;13.73;;;21.00;99.90;;;;;;5035825;28;20254;-72
2022/06/30 01:41:12;;;;;;;16.57;12.87;;;21.00;99.90;;;;;;5017803;28;20297;-70
2022/06/30 01:43:39;;;;;;;16.90;13.47;;;20.90;99.90;;;;;;5017576;28;20195;-69
2022/06/30 01:46:06;;;;;;;23.30;13.40;;;20.90;99.90;;;;;;5017986;28;20290;-69
2022/06/30 01:48:34;;;;;;;18.80;13.83;;;20.90;99.90;;;;;;5017797;28;20237;-70
2022/06/30 01:51:01;;;;;;;19.10;14.70;;;20.90;99.90;;;;;;5017698;28;20210;-74
2022/06/30 01:53:28;;;;;;;17.90;14.43;;;20.90;99.90;;;;;;5016915;28;20230;-70
2022/06/30 01:55:54;;;;;;;20.10;14.53;;;20.80;99.90;;;;;;5017923;28;20541;-70
2022/06/30 01:58:21;;;;;;;22.30;14.30;;;20.80;99.90;;;;;;5018018;28;20302;-71
2022/06/30 02:00:48;;;;;;;23.93;14.83;;;20.80;99.90;;;;;;5017469;28;20192;-70
2022/06/30 02:03:15;;;;;;;21.63;14.27;;;20.80;99.90;;;;;;5035045;28;20572;-70
2022/06/30 02:05:42;;;;;;;20.00;13.90;;;20.80;99.90;;;;;;5017506;28;20637;-70
2022/06/30 02:08:10;;;;;;;22.63;14.17;;;20.80;99.90;;;;;;5017468;28;20213;-69
2022/06/30 02:10:37;;;;;;;19.43;14.63;;;20.80;99.90;;;;;;5017348;28;20188;-71
2022/06/30 02:13:05;;;;;;;20.10;14.73;;;20.70;99.90;;;;;;5034856;28;20552;-73
2022/06/30 02:15:36;;;;;;;20.23;14.57;;;20.70;99.90;;;;;;5017605;28;20188;-71
2022/06/30 02:18:06;;;;;;;18.10;14.03;;;20.70;99.90;;;;;;5017228;28;20291;-70
2022/06/30 02:20:35;;;;;;;20.37;14.17;;;20.70;99.90;;;;;;5017232;28;20188;-71
2022/06/30 02:23:03;;;;;;;19.77;15.60;;;20.60;99.90;;;;;;5017088;28;20211;-71
2022/06/30 02:25:32;;;;;;;20.47;14.53;;;20.60;99.90;;;;;;5017393;28;20704;-71
2022/06/30 02:27:59;;;;;;;21.43;14.53;;;20.60;99.90;;;;;;5016965;28;20290;-69
2022/06/30 02:30:26;;;;;;;17.67;14.30;;;20.60;99.90;;;;;;5016674;28;20234;-70
2022/06/30 02:32:53;;;;;;;18.40;13.80;;;20.60;99.90;;;;;;5016981;28;20512;-70
2022/06/30 02:35:20;;;;;;;17.63;14.50;;;20.70;99.90;;;;;;5017481;28;20217;-70
2022/06/30 02:37:47;;;;;;;17.47;13.70;;;20.70;99.90;;;;;;5016845;28;20210;-70
2022/06/30 02:40:14;;;;;;;18.43;14.33;;;20.70;99.90;;;;;;5017016;28;20318;-69
2022/06/30 02:42:42;;;;;;;24.53;14.57;;;20.80;99.90;;;;;;5016683;28;20290;-70
2022/06/30 02:45:09;;;;;;;19.40;14.33;;;20.70;99.90;;;;;;5033900;28;20627;-69
2022/06/30 02:47:39;;;;;;;19.43;14.50;;;20.80;99.90;;;;;;5034606;28;20180;-69
2022/06/30 02:50:08;;;;;;;18.57;14.63;;;20.80;99.90;;;;;;5034510;28;20226;-69
2022/06/30 02:52:36;;;;;;;17.23;14.20;;;20.80;99.90;;;;;;5034124;28;20183;-69
2022/06/30 02:55:05;;;;;;;19.70;14.10;;;20.80;99.90;;;;;;5016922;28;20293;-70
2022/06/30 02:57:36;;;;;;;19.43;14.70;;;20.80;99.90;;;;;;5017001;28;20192;-71
2022/06/30 03:00:08;;;;;;;18.60;14.30;;;20.80;99.90;;;;;;5016350;28;20313;-70
2022/06/30 03:02:35;;;;;;;21.77;15.23;;;20.80;99.90;;;;;;5016270;28;20196;-70
2022/06/30 03:05:02;;;;;;;19.43;14.33;;;20.80;99.90;;;;;;5016432;28;20196;-69
2022/06/30 03:07:29;;;;;;;18.83;14.53;;;20.80;99.90;;;;;;5016341;28;20238;-70
2022/06/30 03:09:56;;;;;;;19.73;14.30;;;20.70;99.90;;;;;;5016176;28;20734;-69
2022/06/30 03:12:23;;;;;;;20.93;15.07;;;20.80;99.90;;;;;;5016356;28;20209;-69
2022/06/30 03:14:50;;;;;;;18.90;14.80;;;20.80;99.90;;;;;;5016311;28;20668;-69
2022/06/30 03:17:17;;;;;;;18.50;15.10;;;20.70;99.90;;;;;;5015946;28;20209;-70
2022/06/30 03:19:44;;;;;;;19.57;15.27;;;20.70;99.90;;;;;;5016007;28;20322;-69
2022/06/30 03:22:11;;;;;;;17.77;14.67;;;20.70;99.90;;;;;;5016018;28;20195;-69
2022/06/30 03:24:38;;;;;;;21.97;14.77;;;20.70;99.90;;;;;;5016395;28;20211;-70
2022/06/30 03:27:05;;;;;;;18.43;14.67;;;20.70;99.90;;;;;;5015794;28;20195;-70
2022/06/30 03:29:32;;;;;;;19.83;14.80;;;20.70;99.90;;;;;;5016028;28;20290;-70
2022/06/30 03:31:59;;;;;;;18.87;14.43;;;20.70;99.90;;;;;;5015787;28;20203;-69
2022/06/30 03:34:25;;;;;;;18.83;14.60;;;20.70;99.90;;;;;;5033623;28;20219;-69
2022/06/30 03:36:52;;;;;;;20.03;15.50;;;20.70;99.90;;;;;;5016189;28;20241;-69
2022/06/30 03:39:19;;;;;;;22.10;15.23;;;20.70;99.90;;;;;;5033999;28;20602;-73
2022/06/30 03:41:46;;;;;;;19.47;14.40;;;20.70;99.90;;;;;;5033507;28;20641;-70
2022/06/30 03:44:13;;;;;;;18.00;14.70;;;20.80;99.90;;;;;;5015442;28;20326;-70
2022/06/30 03:46:40;;;;;;;19.67;15.27;;;20.80;99.90;;;;;;5015947;28;20294;-68
2022/06/30 03:49:08;;;;;;;21.17;15.30;;;20.80;99.90;;;;;;5016054;28;20202;-76
2022/06/30 03:51:35;;;;;;;20.17;15.23;;;20.80;99.90;;;;;;5015460;28;20219;-77
2022/06/30 03:54:02;;;;;;;21.00;16.10;;;20.80;99.90;;;;;;5015723;28;20195;-76
2022/06/30 03:56:29;;;;;;;19.57;15.30;;;20.80;99.90;;;;;;5015340;28;20214;-78
2022/06/30 03:58:56;;;;;;;21.47;15.23;;;20.80;99.90;;;;;;5033200;28;20676;-75
2022/06/30 04:01:23;;;;;;;20.63;15.43;;;20.80;99.90;;;;;;5015187;28;20319;-76
2022/06/30 04:03:50;;;;;;;19.50;15.50;;;20.90;99.90;;;;;;5015495;28;20229;-74
2022/06/30 04:06:17;;;;;;;19.77;15.50;;;20.90;99.90;;;;;;5033166;28;20394;-76
2022/06/30 04:08:44;;;;;;;22.87;15.67;;;21.00;99.90;;;;;;5032940;28;20194;-70
2022/06/30 04:11:11;;;;;;;19.07;14.97;;;21.10;99.90;;;;;;5015263;28;20204;-70
2022/06/30 04:13:40;;;;;;;19.87;14.50;;;21.20;99.90;;;;;;5033326;28;20238;-70
2022/06/30 04:16:07;;;;;;;20.80;15.87;;;21.20;99.90;;;;;;5014884;28;20269;-70
2022/06/30 04:18:39;;;;;;;19.40;15.40;;;21.20;99.90;;;;;;5032840;28;20231;-71
2022/06/30 04:21:06;;;;;;;22.33;15.20;;;21.30;99.90;;;;;;5032914;28;20192;-70
2022/06/30 04:23:32;;;;;;;18.63;15.33;;;21.30;99.90;;;;;;5015091;28;20733;-69
2022/06/30 04:25:59;;;;;;;19.77;14.40;;;21.30;99.90;;;;;;5015160;28;20223;-68
2022/06/30 04:28:26;;;;;;;19.93;15.07;;;21.50;99.90;;;;;;5033107;28;20282;-70
2022/06/30 04:33:38;;;;;;;19.73;15.50;;;21.70;99.90;;;;;;5015032;28;20495;-71
2022/06/30 04:36:06;;;;;;;19.67;14.70;;;21.90;99.90;;;;;;5033272;28;20219;-70
2022/06/30 04:38:33;;;;;;;19.43;14.87;;;21.90;99.90;;;;;;5014972;28;20234;-69
2022/06/30 04:43:45;;;;;;;19.77;14.20;;;22.20;99.90;;;;;;5014766;28;20297;-73
2022/06/30 04:46:12;;;;;;;22.33;14.57;;;22.30;99.90;;;;;;5014748;28;20199;-74
2022/06/30 04:48:39;;;;;;;20.60;14.33;;;22.40;99.90;;;;;;5032671;28;20602;-75
2022/06/30 04:51:07;;;;;;;19.87;15.00;;;22.60;99.90;;;;;;5014770;28;20298;-74
2022/06/30 04:53:35;;;;;;;17.83;15.13;;;22.60;99.90;;;;;;5014802;28;20195;-76
2022/06/30 04:56:02;;;;;;;19.60;15.03;;;22.60;99.90;;;;;;5014796;28;20686;-75
2022/06/30 04:58:29;;;;;;;21.80;14.97;;;22.60;99.90;;;;;;5015054;28;20188;-78
2022/06/30 05:00:56;;;;;;;20.23;14.83;;;22.80;99.90;;;;;;5014841;28;20286;-76
2022/06/30 05:03:23;;;;;;;22.25;15.43;;;22.90;99.90;;;;;;5015151;28;20241;-77
2022/06/30 05:05:50;;;;;;;18.92;15.13;;;22.90;99.90;;;;;;5014710;28;20286;-78
2022/06/30 05:08:17;;;;;;;20.43;15.10;;;22.90;99.90;;;;;;5032636;28;20541;-77
2022/06/30 05:10:44;;;;;;;25.27;15.00;;;23.00;99.90;;;;;;5014661;28;20204;-70
2022/06/30 05:13:11;;;;;;;20.87;15.00;;;23.10;99.90;;;;;;5014729;28;20401;-78
2022/06/30 05:15:38;;;;;;;18.15;15.32;;;23.10;99.90;;;;;;5014753;28;20290;-76
2022/06/30 05:18:05;;;;;;;20.13;14.88;;;23.20;99.90;;;;;;5014477;28;20222;-75
2022/06/30 05:20:32;;;;;;;19.03;15.23;;;23.20;99.90;;;;;;5014443;28;20225;-76
2022/06/30 05:22:59;;;;;;;19.70;15.47;;;23.30;99.90;;;;;;5014828;28;20555;-77
2022/06/30 05:28:11;;;;;;;17.97;15.00;;;23.40;99.90;;;;;;5015484;28;20202;-76
2022/06/30 05:30:39;;;;;;;21.58;15.38;;;23.50;99.90;;;;;;5017973;28;20202;-77
2022/06/30 05:33:06;;;;;;;21.92;15.10;;;23.50;99.90;;;;;;5017782;28;20211;-76
2022/06/30 05:35:35;;;;;;;20.95;15.15;;;23.60;99.90;;;;;;5018218;28;20188;-74
2022/06/30 05:38:02;;;;;;;18.98;15.30;;;23.70;99.90;;;;;;5017947;28;20653;-74
2022/06/30 05:40:29;;;;;;;19.20;14.25;;;23.80;99.90;;;;;;5018110;28;20242;-73
2022/06/30 05:42:56;;;;;;;20.98;15.25;;;23.90;99.90;;;;;;5017661;28;20204;-69
2022/06/30 05:45:23;;;;;;;21.70;16.00;;;23.90;99.90;;;;;;5017891;28;20410;-71
2022/06/30 05:47:52;;;;;;;19.80;14.52;;;24.00;99.90;;;;;;5018033;28;20245;-69
2022/06/30 05:50:20;;;;;;;17.25;14.13;;;24.00;99.90;;;;;;5017834;28;20716;-70
2022/06/30 05:52:50;;;;;;;22.70;15.60;;;24.10;99.90;;;;;;5035438;28;20275;-71
2022/06/30 05:55:17;;;;;;;19.98;15.70;;;24.10;99.90;;;;;;5017693;28;20294;-71
2022/06/30 05:57:52;;;;;;;21.58;14.48;;;24.10;99.90;;;;;;5017691;28;20306;-78
2022/06/30 06:00:25;;;;;;;20.98;15.15;;;24.20;99.90;;;;;;5017575;28;20349;-71
2022/06/30 06:02:52;;;;;;;21.27;14.07;;;24.40;99.90;;;;;;5017450;28;20299;-75
2022/06/30 06:05:20;;;;;;;20.05;14.40;;;24.50;99.90;;;;;;5017935;28;20199;-72
2022/06/30 06:07:48;;;;;;;21.13;14.50;;;24.70;99.90;;;;;;5018807;28;20205;-76
2022/06/30 06:10:15;;;;;;;24.85;15.73;;;24.80;99.90;;;;;;5018624;28;20196;-72
2022/06/30 06:12:43;;;;;;;22.02;13.93;;;24.90;99.90;;;;;;5017098;28;20636;-71
2022/06/30 06:15:14;;;;;;;21.33;15.25;;;25.10;99.90;;;;;;5017211;28;20606;-71
2022/06/30 06:17:47;;;;;;;19.55;14.10;;;25.10;99.90;;;;;;5017491;28;20245;-72
2022/06/30 06:20:16;;;;;;;19.65;14.23;;;25.00;99.90;;;;;;5017365;28;20677;-80
2022/06/30 06:22:44;;;;;;;20.33;14.30;;;25.10;99.90;;;;;;5017398;28;20231;-75
2022/06/30 06:25:12;;;;;;;18.50;14.05;;;25.20;99.90;;;;;;5017638;28;20196;-79
2022/06/30 06:27:40;;;;;;;18.67;14.40;;;25.20;99.90;;;;;;5035958;28;20683;-77
2022/06/30 06:30:10;;;;;;;16.63;13.70;;;25.10;99.90;;;;;;5017467;28;21047;-79
2022/06/30 06:32:37;;;;;;;18.20;14.35;;;25.30;99.90;;;;;;5017075;28;20257;-78
2022/06/30 06:35:08;;;;;;;18.98;14.85;;;25.40;99.90;;;;;;5017263;28;20191;-76
2022/06/30 06:37:38;;;;;;;23.98;14.63;;;25.20;99.90;;;;;;5035190;28;20246;-75
2022/06/30 06:40:06;;;;;;;27.08;14.65;;;25.20;99.90;;;;;;5016978;28;20212;-74
2022/06/30 06:42:33;;;;;;;21.27;14.23;;;25.40;99.90;;;;;;5034478;28;20302;-78
2022/06/30 06:45:08;;;;;;;16.83;13.50;;;25.50;99.90;;;;;;5013304;28;20239;-73
2022/06/30 06:47:35;;;;;;;20.27;14.55;;;25.60;99.90;;;;;;5013942;28;20295;-79
2022/06/30 06:50:02;;;;;;;19.23;14.23;;;25.70;99.90;;;;;;5016092;28;20212;-79
2022/06/30 06:52:29;;;;;;;25.92;15.95;;;25.70;99.90;;;;;;5013499;28;20192;-87
2022/06/30 06:54:56;;;;;;;24.65;14.80;;;25.60;99.90;;;;;;5013511;28;20207;-80
2022/06/30 06:57:23;;;;;;;22.10;15.10;;;25.60;99.90;;;;;;5013583;28;20756;-76
2022/06/30 06:59:49;;;;;;;20.83;15.07;;;25.60;99.90;;;;;;5013782;28;20208;-83
2022/06/30 07:02:16;;;;;;;24.15;15.07;;;25.50;99.90;;;;;;5012794;28;20207;-82
2022/06/30 07:04:43;;;;;;;24.27;15.52;;;25.60;99.90;;;;;;5013658;28;20200;-84
2022/06/30 07:07:10;;;;;;;21.85;14.73;;;25.70;99.90;;;;;;5013251;28;20644;-85
2022/06/30 07:09:37;;;;;;;22.98;15.25;;;25.80;99.90;;;;;;5037942;28;20614;-82
2022/06/30 07:12:05;;;;;;;21.13;14.30;;;25.80;99.90;;;;;;5051493;28;20790;-83
2022/06/30 07:14:32;;;;;;;18.85;13.65;;;25.80;99.90;;;;;;5033046;28;20290;-78
2022/06/30 07:16:58;;;;;;;19.02;13.40;;;25.80;99.90;;;;;;5034052;28;20196;-80
2022/06/30 07:19:26;;;;;;;19.98;15.02;;;25.90;99.90;;;;;;5033910;28;20599;-83
2022/06/30 07:21:52;;;;;;;19.58;14.60;;;26.10;99.90;;;;;;5032963;28;20294;-78
2022/06/30 07:24:19;;;;;;;26.10;15.07;;;26.10;99.90;;;;;;5033325;28;20652;-79
2022/06/30 07:26:47;;;;;;;25.27;15.13;;;26.10;99.90;;;;;;5032684;28;20668;-81
2022/06/30 07:29:14;;;;;;;21.20;14.50;;;26.30;99.90;;;;;;5032541;28;20626;-80
2022/06/30 07:31:41;;;;;;;19.02;14.77;;;26.40;99.90;;;;;;5032648;28;20605;-79
2022/06/30 07:34:08;;;;;;;17.85;15.13;;;26.40;99.90;;;;;;5033194;28;20222;-78
2022/06/30 07:36:41;;;;;;;23.90;15.38;;;26.40;99.90;;;;;;5032386;28;20302;-78
2022/06/30 07:39:08;;;;;;;23.10;16.02;;;26.20;99.90;;;;;;5032328;28;20196;-79
2022/06/30 07:41:35;;;;;;;21.77;15.20;;;26.20;99.90;;;;;;5031975;28;20429;-77
2022/06/30 07:44:01;;;;;;;24.40;15.20;;;26.20;99.90;;;;;;5031900;28;20259;-80
2022/06/30 07:46:28;;;;;;;21.75;15.00;;;26.40;99.90;;;;;;5032029;28;20299;-79
2022/06/30 07:49:00;;;;;;;23.10;15.60;;;26.40;99.90;;;;;;5032136;28;20192;-80
2022/06/30 07:51:27;;;;;;;24.25;14.77;;;26.50;99.90;;;;;;5031709;28;20282;-81
2022/06/30 07:53:54;;;;;;;23.50;15.30;;;26.60;99.90;;;;;;5031902;28;20294;-79
2022/06/30 07:56:23;;;;;;;23.90;15.30;;;26.90;99.90;;;;;;5032070;28;20226;-79
2022/06/30 07:58:50;;;;;;;21.02;15.07;;;27.20;99.90;;;;;;5030174;28;20655;-79
2022/06/30 08:01:19;;;;;;;22.75;15.00;;;27.30;99.90;;;;;;5024196;28;20305;-80
2022/06/30 08:03:46;;;;;;;23.48;14.80;;;27.30;99.90;;;;;;5022406;28;20200;-81
2022/06/30 08:06:13;;;;;;;21.20;15.13;;;27.50;99.90;;;;;;5021168;28;20286;-80
2022/06/30 08:08:42;;;;;;;20.02;14.38;;;27.40;99.90;;;;;;5019957;28;20590;-79
2022/06/30 08:11:12;;;;;;;28.55;16.15;;;27.60;99.90;;;;;;5028189;28;20529;-80
2022/06/30 08:13:39;;;;;;;23.95;15.50;;;27.80;99.90;;;;;;5014873;28;20291;-79
2022/06/30 08:16:06;;;;;;;23.80;15.35;;;27.80;99.90;;;;;;5023011;28;20274;-79
2022/06/30 08:18:33;;;;;;;16.55;13.55;;;28.10;99.90;;;;;;5014644;28;20295;-77
2022/06/30 08:21:00;;;;;;;26.13;15.02;;;28.10;99.90;;;;;;5012076;28;20220;-77
2022/06/30 08:23:27;;;;;;;17.48;14.40;;;28.30;99.90;;;;;;5011898;28;20224;-78
2022/06/30 08:25:54;;;;;;;18.92;14.63;;;27.90;99.90;;;;;;5011855;28;20622;-78
2022/06/30 08:28:22;;;;;;;18.77;14.30;;;28.20;99.90;;;;;;5012283;28;20295;-78
2022/06/30 08:30:50;;;;;;;19.10;13.95;;;28.30;99.90;;;;;;5011862;28;20204;-78
2022/06/30 08:33:18;;;;;;;18.83;13.18;;;28.70;99.90;;;;;;5014474;28;20207;-76
2022/06/30 08:35:45;;;;;;;49.38;16.60;;;29.40;99.90;;;;;;5033200;28;20199;-75
2022/06/30 08:38:29;;;;;;;16.40;13.00;;;29.90;99.90;;;;;;5031516;28;20206;-78
2022/06/30 08:43:44;;;;;;;16.40;13.13;;;30.50;99.90;;;;;;5013257;28;20230;-78
2022/06/30 08:46:12;;;;;;;19.02;13.30;;;30.70;99.90;;;;;;5015017;28;20223;-78
2022/06/30 08:48:39;;;;;;;18.63;13.65;;;30.80;99.90;;;;;;5014857;28;20289;-79
2022/06/30 08:51:07;;;;;;;18.38;12.98;;;31.30;99.90;;;;;;5016205;28;20245;-81
2022/06/30 08:53:44;;;;;;;16.08;12.63;;;31.50;99.90;;;;;;5045426;28;20548;-76
2022/06/30 08:56:13;;;;;;;15.18;13.07;;;31.10;99.90;;;;;;5035417;28;20195;-80
2022/06/30 08:58:41;;;;;;;16.67;13.40;;;31.00;99.90;;;;;;5035049;28;20269;-78
2022/06/30 09:01:09;;;;;;;22.15;13.65;;;31.10;99.90;;;;;;5035623;28;20222;-76
2022/06/30 09:03:37;;;;;;;16.90;13.55;;;31.20;99.90;;;;;;5055666;28;20178;-77
2022/06/30 09:06:06;;;;;;;45.15;18.13;;;31.10;99.90;;;;;;5038528;28;20249;-71
2022/06/30 09:08:33;;;;;;;30.77;15.40;;;31.00;99.90;;;;;;5038635;28;20404;-78
2022/06/30 09:11:00;;;;;;;42.25;17.30;;;31.00;99.90;;;;;;5038478;28;20244;-76
2022/06/30 09:13:42;;;;;;;32.25;16.00;;;31.40;99.90;;;;;;5038437;28;20222;-77
2022/06/30 09:16:09;;;;;;;26.27;15.07;;;31.70;99.90;;;;;;5038397;28;20233;-77
2022/06/30 09:18:36;;;;;;;18.40;14.05;;;31.70;99.90;;;;;;5036787;28;20261;-76
2022/06/30 09:21:19;;;;;;;20.92;14.25;;;31.90;99.90;;;;;;5036747;28;20227;-77
2022/06/30 09:23:48;;;;;;;17.83;14.23;;;32.30;99.90;;;;;;5055789;28;20663;-77
2022/06/30 09:26:20;;;;;;;14.80;13.20;;;32.20;99.90;;;;;;5046079;28;20306;-76
2022/06/30 09:28:53;;;;;;;18.25;13.88;;;32.40;99.90;;;;;;5028318;28;20200;-76
2022/06/30 09:31:44;;;;;;;16.70;14.30;;;32.40;99.90;;;;;;5032371;28;20278;-77
2022/06/30 09:34:20;;;;;;;20.02;14.27;;;32.70;99.90;;;;;;5037684;28;20199;-76
2022/06/30 09:36:52;;;;;;;18.33;13.23;;;33.10;99.90;;;;;;5037652;28;20203;-76
2022/06/30 09:39:21;;;;;;;16.25;13.20;;;33.40;99.90;;;;;;5034636;28;20194;-78
2022/06/30 09:41:50;;;;;;;17.33;13.93;;;33.40;99.90;;;;;;5018941;28;20233;-79
2022/06/30 09:44:22;;;;;;;16.58;13.27;;;33.60;99.90;;;;;;5017979;28;20278;-79
2022/06/30 09:46:58;;;;;;;17.52;13.48;;;33.70;99.90;;;;;;5034272;28;20192;-79
2022/06/30 09:49:46;;;;;;;15.88;13.38;;;33.70;99.90;;;;;;5015278;28;20196;-80
2022/06/30 09:52:24;;;;;;;18.50;12.60;;;33.70;99.90;;;;;;5014769;28;20577;-80
2022/06/30 09:55:01;;;;;;;17.73;13.55;;;34.10;99.90;;;;;;5033553;28;20192;-77
2022/06/30 09:57:38;;;;;;;15.43;12.57;;;34.30;99.90;;;;;;5034338;28;20249;-81
2022/06/30 10:00:08;;;;;;;17.38;12.18;;;34.70;99.90;;;;;;5034489;28;20290;-78
2022/06/30 10:02:41;;;;;;;14.32;12.82;;;34.80;99.90;;;;;;5035458;28;20710;-77
2022/06/30 10:05:10;;;;;;;16.38;12.55;;;34.90;99.90;;;;;;5035097;28;20218;-75
2022/06/30 10:07:38;;;;;;;14.60;12.60;;;34.90;99.90;;;;;;5034251;28;20199;-78
2022/06/30 10:10:14;;;;;;;13.25;11.85;;;35.30;99.90;;;;;;5034094;28;20249;-82
2022/06/30 10:12:45;;;;;;;17.00;12.75;;;35.30;99.90;;;;;;5034099;28;20191;-82
2022/06/30 10:15:16;;;;;;;16.75;12.90;;;35.50;99.90;;;;;;5030845;28;20274;-83
2022/06/30 10:17:50;;;;;;;13.60;12.20;;;35.30;99.90;;;;;;5030836;28;20302;-81
2022/06/30 10:20:20;;;;;;;17.00;12.93;;;35.70;99.90;;;;;;5033735;28;20676;-84
2022/06/30 10:22:48;;;;;;;15.75;12.65;;;35.90;99.90;;;;;;5050984;28;20290;-86
2022/06/30 10:25:18;;;;;;;14.20;11.52;;;36.20;99.90;;;;;;5033761;28;20255;-81
2022/06/30 10:27:46;;;;;;;18.52;13.02;;;36.20;99.90;;;;;;5029183;28;20188;-80
2022/06/30 10:30:16;;;;;;;16.73;12.48;;;36.40;99.90;;;;;;5025687;28;20295;-83
2022/06/30 10:33:09;;;;;;;15.23;11.80;;;36.50;99.90;;;;;;5052214;28;20196;-79
2022/06/30 10:35:47;;;;;;;13.82;12.18;;;36.70;99.90;;;;;;5016737;28;20235;-77
2022/06/30 10:38:20;;;;;;;13.90;11.90;;;36.80;99.90;;;;;;5024128;28;20203;-79
2022/06/30 10:40:54;;;;;;;13.35;11.95;;;37.40;99.90;;;;;;5024313;28;20306;-79
2022/06/30 10:43:21;;;;;;;18.35;12.45;;;37.40;99.90;;;;;;5032046;28;20277;-81
2022/06/30 10:45:57;;;;;;;15.75;11.48;;;37.50;99.90;;;;;;5021118;28;20743;-77
2022/06/30 10:48:28;;;;;;;19.65;11.70;;;37.90;99.20;;;;;;5030846;28;20245;-78
2022/06/30 10:50:56;;;;;;;14.90;11.25;;;38.20;96.50;;;;;;5017034;28;20181;-76
2022/06/30 10:53:36;;;;;;;11.75;10.43;;;38.10;95.80;;;;;;5030874;28;20203;-77
2022/06/30 10:56:03;;;;;;;14.38;10.70;;;37.90;94.20;;;;;;5033158;28;20291;-78
2022/06/30 10:58:30;;;;;;;11.60;10.50;;;37.60;93.30;;;;;;5033230;28;20661;-80
2022/06/30 11:01:13;;;;;;;11.98;10.23;;;37.60;92.60;;;;;;5032934;28;20219;-82
2022/06/30 11:03:50;;;;;;;11.75;10.02;;;37.70;93.30;;;;;;5033052;28;20195;-79
2022/06/30 11:06:17;;;;;;;11.68;10.48;;;37.90;92.70;;;;;;5033265;28;20199;-80
2022/06/30 11:08:50;;;;;;;13.00;10.63;;;38.40;91.20;;;;;;5032649;28;20198;-80
2022/06/30 11:11:20;;;;;;;16.63;11.10;;;38.80;91.00;;;;;;5023127;28;20195;-82
2022/06/30 11:14:00;;;;;;;13.05;10.48;;;39.00;90.40;;;;;;5049152;28;20210;-81
2022/06/30 11:16:28;;;;;;;10.88;9.82;;;39.00;88.60;;;;;;5025414;28;20215;-82
2022/06/30 11:18:56;;;;;;;10.98;9.90;;;39.10;87.20;;;;;;5014772;28;20184;-81
2022/06/30 11:21:23;;;;;;;14.30;10.90;;;39.20;85.10;;;;;;5013234;28;20223;-79
2022/06/30 11:23:51;;;;;;;11.00;9.75;;;39.40;84.40;;;;;;5014006;28;20741;-81
2022/06/30 11:29:12;;;;;;;11.48;9.52;;;39.40;81.30;;;;;;5017145;28;20188;-75
2022/06/30 11:31:42;;;;;;;12.43;9.75;;;40.00;78.50;;;;;;5028134;28;20231;-75
2022/06/30 11:34:19;;;;;;;12.40;9.23;;;40.10;77.60;;;;;;5033406;28;20274;-72
2022/06/30 11:36:46;;;;;;;16.63;9.73;;;40.00;75.10;;;;;;5032229;28;20195;-74
2022/06/30 11:39:17;;;;;;;12.38;9.18;;;40.40;74.00;;;;;;5032161;28;20283;-75
2022/06/30 11:41:55;;;;;;;16.02;9.45;;;40.60;73.10;;;;;;5032006;28;20612;-74
2022/06/30 11:44:33;;;;;;;10.70;8.60;;;40.90;70.40;;;;;;5032078;28;20227;-75
2022/06/30 11:47:10;;;;;;;17.75;10.10;;;40.70;69.70;;;;;;5032203;28;20286;-78
2022/06/30 11:49:55;;;;;;;13.02;10.02;;;41.10;69.90;;;;;;5032249;28;20289;-74
2022/06/30 11:52:28;;;;;;;15.45;9.88;;;41.10;66.30;;;;;;5032101;28;20192;-76
2022/06/30 11:54:58;;;;;;;14.52;8.95;;;40.90;66.00;;;;;;5033260;28;20188;-76
2022/06/30 11:57:38;;;;;;;14.25;8.85;;;41.20;64.70;;;;;;5031959;28;20254;-75
2022/06/30 12:00:07;;;;;;;14.38;8.32;;;41.50;64.60;;;;;;5032316;28;20336;-77
2022/06/30 12:02:35;;;;;;;12.75;8.93;;;41.90;63.60;;;;;;5031482;28;20288;-76
2022/06/30 12:05:05;;;;;;;10.98;8.30;;;41.90;61.20;;;;;;5031678;28;20210;-76
2022/06/30 12:07:34;;;;;;;8.88;7.97;;;41.80;60.20;;;;;;5031815;28;20203;-76
2022/06/30 12:10:05;;;;;;;10.73;8.27;;;42.10;60.10;;;;;;5031819;28;20238;-77
2022/06/30 12:12:36;;;;;;;8.40;7.60;;;42.10;59.70;;;;;;5033340;28;20333;-76
2022/06/30 12:15:09;;;;;;;9.77;7.63;;;42.10;58.30;;;;;;5031750;28;20199;-76
2022/06/30 12:17:38;;;;;;;9.10;7.80;;;42.20;58.00;;;;;;5031619;28;20223;-74
2022/06/30 12:20:08;;;;;;;9.32;7.60;;;42.10;57.80;;;;;;5033136;28;20605;-75
2022/06/30 12:22:40;;;;;;;10.55;8.20;;;42.30;57.40;;;;;;5031471;28;20230;-74
2022/06/30 12:25:08;;;;;;;11.75;9.60;;;42.60;56.50;;;;;;5033299;28;20199;-75
2022/06/30 12:27:45;;;;;;;10.93;8.60;;;42.30;56.60;;;;;;5032802;28;20250;-82
2022/06/30 12:30:15;;;;;;;11.20;8.05;;;41.80;56.50;;;;;;5031716;28;20213;-77
2022/06/30 12:32:51;;;;;;;10.00;7.90;;;42.10;56.80;;;;;;5031574;28;20227;-74
2022/06/30 12:35:22;;;;;;;9.15;7.57;;;42.20;55.50;;;;;;5031685;28;20195;-76
2022/06/30 12:37:55;;;;;;;9.02;7.50;;;42.20;55.90;;;;;;5018263;28;20190;-75
2022/06/30 12:40:26;;;;;;;10.77;7.75;;;42.00;54.50;;;;;;5035603;28;20524;-77
2022/06/30 12:42:59;;;;;;;8.57;7.50;;;42.10;53.90;;;;;;5035568;28;20219;-73
2022/06/30 12:45:45;;;;;;;10.95;8.38;;;41.90;54.80;;;;;;5052210;28;20649;-75
2022/06/30 12:48:33;;;;;;;12.00;8.98;;;41.60;55.90;;;;;;5022201;28;20194;-75
2022/06/30 12:51:01;;;;;;;9.75;8.35;;;41.60;56.50;;;;;;5038415;28;20194;-77
2022/06/30 12:53:28;;;;;;;9.93;8.57;;;42.20;55.60;;;;;;5038733;28;20225;-75
2022/06/30 12:55:55;;;;;;;16.58;8.90;;;42.20;55.60;;;;;;5056455;28;20187;-75